Garupa, Argentina
Current Conditions -  °F | °C
As of 2:00 PM on Wednesday 26 Nov 2014 (Local Time) from SARP Reporting Station
Broken Clouds Broken Clouds  
Wind Chill: 86°   Ceiling: 3500
Heat Index: 93°   Visibility: 6mi
Dew Point: 73°   Wind: 8mph
Humidity: 66%   Direction: 50°NE
Pressure: 29.8"   Gusts: NA
Location:  27.48°S, 55.83°W
Report Text: SARP 261700Z 05007KT 9999 BKN035 30/23 Q1009
Loading
Personal Weather Stations






























Interactive Weather Map New forecast layout! Learn more

10-Day Weather Forecast

Advertisements
Track Severe Weather on mobile